Time;durP1;ratioP1;P1;durP2;ratioP2;P2;SDS_P1;SDS_P2;PMS_P1;PMS_P2;Temp;Humidity;BMP_temperature;BMP_pressure;BME280_temperature;BME280_humidity;BME280_pressure;Samples;Min_cycle;Max_cycle;Signal;HPM_P1;HPM_P2
2021/12/08 00:00:27;;;;;;;16.02;12.00;;;;;;;12.94;73.72;101400.78;4981215;28;20016;-73
2021/12/08 00:02:54;;;;;;;14.52;11.38;;;;;;;13.09;72.43;101404.13;4994221;28;20044;-74
2021/12/08 00:05:22;;;;;;;15.68;11.52;;;;;;;13.07;73.16;101409.47;4980248;28;20032;-72
2021/12/08 00:07:49;;;;;;;14.75;11.52;;;;;;;13.03;72.79;101407.75;4985739;28;20033;-73
2021/12/08 00:13:07;;;;;;;14.23;11.20;;;;;;;12.85;75.04;101414.16;4989758;28;20038;-68
2021/12/08 00:15:49;;;;;;;18.02;11.20;;;;;;;12.72;76.01;101418.72;4990286;28;20461;-68
2021/12/08 00:18:21;;;;;;;13.40;11.18;;;;;;;12.62;76.68;101422.38;4976680;28;20031;-69
2021/12/08 00:20:48;;;;;;;14.95;11.18;;;;;;;12.52;76.88;101419.81;4982424;28;20030;-69
2021/12/08 00:23:15;;;;;;;16.42;12.38;;;;;;;12.44;77.52;101418.13;4976923;28;20022;-69
2021/12/08 00:25:43;;;;;;;16.83;12.05;;;;;;;12.35;77.59;101419.09;4975415;28;20035;-69
2021/12/08 00:28:10;;;;;;;15.57;12.23;;;;;;;12.26;77.76;101433.28;4978091;28;20037;-70
2021/12/08 00:30:37;;;;;;;;;;;;;;;12.16;78.21;101442.22;4986309;28;20030;-69
2021/12/08 00:33:05;;;;;;;18.20;11.85;;;;;;;12.07;77.88;101453.78;4988626;28;19982;-70
2021/12/08 00:35:32;;;;;;;16.52;12.32;;;;;;;11.99;79.08;101448.53;4980352;28;20046;-68
2021/12/08 00:37:59;;;;;;;17.02;11.95;;;;;;;11.90;78.96;101443.25;4980984;28;20026;-68
2021/12/08 00:40:28;;;;;;;13.95;10.68;;;;;;;11.83;79.55;101444.22;4978103;28;20034;-68
2021/12/08 00:42:54;;;;;;;16.85;10.43;;;;;;;11.74;79.38;101444.28;4971844;28;20062;-70
2021/12/08 00:45:23;;;;;;;12.50;9.43;;;;;;;11.64;80.04;101457.56;4978775;28;20031;-75
2021/12/08 00:47:52;;;;;;;13.63;9.95;;;;;;;11.55;80.52;101467.31;4978039;28;20074;-66
2021/12/08 00:50:21;;;;;;;14.20;9.88;;;;;;;11.43;80.88;101485.00;4973749;28;20026;-66
2021/12/08 00:52:47;;;;;;;17.08;11.55;;;;;;;11.35;81.47;101497.38;4969459;28;20030;-71
2021/12/08 00:55:15;;;;;;;18.02;12.82;;;;;;;11.36;81.32;101493.84;4973771;28;20026;-66
2021/12/08 00:57:42;;;;;;;14.70;10.95;;;;;;;11.47;81.40;101507.03;4974781;28;20031;-69
2021/12/08 01:00:16;;;;;;;11.52;8.70;;;;;;;11.61;80.93;101501.69;4974622;28;20520;-66
2021/12/08 01:02:43;;;;;;;11.85;9.27;;;;;;;11.64;81.27;101504.31;4981798;28;20128;-65
2021/12/08 01:05:11;;;;;;;14.40;9.15;;;;;;;11.62;81.58;101512.25;4977826;28;20022;-65
2021/12/08 01:07:38;;;;;;;14.93;10.70;;;;;;;11.59;82.89;101514.94;4974592;28;20114;-69
2021/12/08 01:10:06;;;;;;;;;;;;;;;11.48;83.42;101514.09;4977721;28;20089;-65
2021/12/08 01:12:33;;;;;;;13.18;9.85;;;;;;;11.43;82.84;101526.44;4979060;28;19917;-70
2021/12/08 01:14:59;;;;;;;16.50;9.82;;;;;;;11.32;83.86;101527.34;4986586;28;20093;-71
2021/12/08 01:17:25;;;;;;;12.27;9.55;;;;;;;11.28;83.90;101532.69;4988798;28;20126;-75
2021/12/08 01:19:51;;;;;;;16.58;10.38;;;;;;;11.21;82.99;101526.53;4986586;28;20035;-76
2021/12/08 01:22:17;;;;;;;16.00;9.38;;;;;;;11.09;83.53;101527.44;4990893;28;20053;-74
2021/12/08 01:24:44;;;;;;;14.20;9.07;;;;;;;11.02;84.24;101530.97;4977955;28;20034;-69
2021/12/08 01:27:10;;;;;;;14.40;9.52;;;;;;;10.96;84.93;101525.72;4974002;28;20057;-73
2021/12/08 01:29:36;;;;;;;16.02;10.77;;;;;;;10.89;83.92;101527.47;4971821;28;20101;-73
2021/12/08 01:32:06;;;;;;;13.85;9.55;;;;;;;10.83;83.88;101524.84;4977127;28;20109;-75
2021/12/08 01:34:32;;;;;;;14.48;9.80;;;;;;;10.73;85.41;101526.63;4981467;28;20040;-77
2021/12/08 01:36:59;;;;;;;14.55;9.77;;;;;;;10.70;84.53;101528.38;4984222;28;20026;-68
2021/12/08 01:39:25;;;;;;;14.63;10.82;;;;;;;10.63;84.38;101522.22;4985055;28;20049;-75
2021/12/08 01:41:53;;;;;;;15.15;11.02;;;;;;;10.54;84.19;101525.72;4983325;28;20035;-73
2021/12/08 01:47:04;;;;;;;14.70;10.65;;;;;;;10.38;84.67;101531.91;4965306;28;20823;-75
2021/12/08 01:49:31;;;;;;;18.45;11.93;;;;;;;10.31;84.56;101537.13;4987404;28;20030;-70
2021/12/08 01:51:57;;;;;;;18.83;12.40;;;;;;;10.23;85.37;101541.53;4981446;28;20131;-76
2021/12/08 01:54:24;;;;;;;17.55;11.98;;;;;;;10.17;85.95;101554.72;4978023;28;20688;-72
2021/12/08 01:56:51;;;;;;;17.35;11.48;;;;;;;10.06;85.92;101556.47;4977768;28;20085;-74
2021/12/08 01:59:17;;;;;;;16.73;10.68;;;;;;;9.99;85.84;101569.66;4982224;28;20062;-75
2021/12/08 02:01:45;;;;;;;16.48;10.75;;;;;;;9.96;85.73;101568.75;4976000;28;20030;-74
2021/12/08 02:04:12;;;;;;;16.73;9.70;;;;;;;9.91;86.04;101581.06;4979484;28;20110;-70
2021/12/08 02:06:45;;;;;;;17.85;10.43;;;;;;;9.85;85.77;101580.19;4993663;28;20476;-73
2021/12/08 02:09:14;;;;;;;17.13;10.38;;;;;;;9.79;86.39;101588.06;4983158;28;20035;-70
2021/12/08 02:11:45;;;;;;;20.90;10.95;;;;;;;9.74;86.29;101587.16;4978658;28;20034;-69
2021/12/08 02:14:13;;;;;;;18.15;10.98;;;;;;;9.70;86.10;101593.31;4979380;28;20089;-70
2021/12/08 02:16:39;;;;;;;15.55;10.98;;;;;;;9.64;86.02;101578.34;4980860;28;20026;-74
2021/12/08 02:19:06;;;;;;;25.98;17.17;;;;;;;9.56;87.01;101571.25;4977638;28;20097;-69
2021/12/08 02:21:34;;;;;;;25.30;19.40;;;;;;;9.48;86.33;101582.66;4979511;28;20535;-69
2021/12/08 02:24:05;;;;;;;19.52;15.13;;;;;;;9.43;86.84;101591.41;4977684;28;20034;-77
2021/12/08 02:26:32;;;;;;;20.27;13.55;;;;;;;9.39;86.73;101584.34;4983564;28;20026;-75
2021/12/08 02:29:02;;;;;;;17.13;11.07;;;;;;;9.35;86.70;101586.09;4981054;28;20385;-73
2021/12/08 02:32:11;;;;;;;19.77;11.05;;;;;;;9.28;86.65;101592.19;4973772;28;20030;-68
2021/12/08 02:46:44;;;;;;;13.77;9.40;;;;;;;9.13;86.91;101591.22;4982737;28;20045;-71
2021/12/08 02:48:10;;;;;;;21.70;9.52;;;;;;;8.89;87.07;101591.94;4974709;28;20042;-69
2021/12/08 02:50:41;;;;;;;15.98;9.40;;;;;;;8.85;87.24;101595.41;4975333;28;20031;-68
2021/12/08 02:53:11;;;;;;;15.10;8.82;;;;;;;8.79;87.31;101593.63;4991888;28;20038;-68
2021/12/08 02:55:40;;;;;;;17.10;9.80;;;;;;;8.74;87.29;101602.34;4991382;28;20361;-68
2021/12/08 02:58:07;;;;;;;13.30;8.90;;;;;;;8.68;87.30;101592.63;4983490;28;20031;-68
2021/12/08 03:00:41;;;;;;;17.17;9.57;;;;;;;8.64;86.89;101598.75;4989111;28;20124;-68
2021/12/08 03:03:08;;;;;;;17.98;10.43;;;;;;;8.59;87.90;101596.06;4975722;28;20034;-68
2021/12/08 03:05:34;;;;;;;22.38;10.73;;;;;;;8.56;88.00;101600.44;4984294;28;20436;-67
2021/12/08 03:08:01;;;;;;;25.50;13.13;;;;;;;8.52;88.16;101604.78;4981297;28;20034;-67
2021/12/08 03:10:31;;;;;;;21.70;12.50;;;;;;;8.52;88.78;101610.06;4992221;28;20029;-67
2021/12/08 03:12:58;;;;;;;24.35;13.77;;;;;;;8.49;88.89;101600.38;4981653;28;20026;-67
2021/12/08 03:15:24;;;;;;;22.05;13.45;;;;;;;8.50;88.63;101591.63;4975249;28;20488;-68
2021/12/08 03:17:50;;;;;;;;;;;;;;;8.47;89.31;101588.06;4994582;28;20038;-68
2021/12/08 03:20:26;;;;;;;20.30;12.27;;;;;;;8.42;89.14;101582.72;4977918;28;19917;-72
2021/12/08 03:22:59;;;;;;;25.02;12.98;;;;;;;8.39;89.09;101587.06;4973570;28;20109;-73
2021/12/08 03:25:28;;;;;;;21.85;12.27;;;;;;;8.34;88.88;101587.91;4972311;28;20045;-72
2021/12/08 03:28:06;;;;;;;22.52;13.43;;;;;;;8.34;88.99;101589.66;4979323;28;20038;-72
2021/12/08 03:30:39;;;;;;;21.83;12.25;;;;;;;8.31;88.64;101587.88;4958273;28;20034;-73
2021/12/08 03:33:05;;;;;;;25.13;12.88;;;;;;;8.28;88.43;101598.38;4977964;28;20393;-71
2021/12/08 03:35:32;;;;;;;21.30;12.50;;;;;;;8.24;88.78;101596.59;4980146;28;20038;-67
2021/12/08 03:37:59;;;;;;;24.20;13.07;;;;;;;8.21;88.82;101599.19;4972938;28;20131;-68
2021/12/08 03:40:26;;;;;;;22.60;12.55;;;;;;;8.19;89.11;101611.44;4969566;28;20039;-68
2021/12/08 03:42:57;;;;;;;27.17;13.05;;;;;;;8.14;88.87;101623.66;4976264;28;20540;-74
2021/12/08 03:45:34;;;;;;;27.00;13.07;;;;;;;8.13;89.03;101621.88;4973486;28;20054;-73
2021/12/08 03:48:07;;;;;;;;;;;;;;;8.10;89.74;101622.75;4981948;28;20023;-73
2021/12/08 03:50:37;;;;;;;22.08;12.20;;;;;;;8.04;89.40;101621.78;4969390;28;19973;-73
2021/12/08 03:53:06;;;;;;;24.58;13.48;;;;;;;8.00;89.54;101613.00;4973939;28;20193;-73
2021/12/08 03:55:32;;;;;;;24.40;14.00;;;;;;;7.98;89.92;101612.06;4987791;28;20142;-73
2021/12/08 03:57:59;;;;;;;25.80;15.35;;;;;;;7.97;89.90;101611.22;4974576;28;20030;-73
2021/12/08 04:00:29;;;;;;;28.17;14.85;;;;;;;7.97;90.25;101592.78;4973762;28;20121;-73
2021/12/08 04:02:58;;;;;;;33.50;15.70;;;;;;;7.97;90.13;101599.78;4974568;28;20031;-73
2021/12/08 04:05:39;;;;;;;25.70;15.38;;;;;;;7.97;90.39;101594.50;4973180;28;20031;-73
2021/12/08 04:08:15;;;;;;;29.17;15.63;;;;;;;7.96;90.22;101604.16;4985731;28;20468;-73
2021/12/08 04:10:44;;;;;;;32.65;15.68;;;;;;;7.95;90.31;101607.66;4985455;28;20031;-74
2021/12/08 04:13:11;;;;;;;27.20;15.48;;;;;;;7.93;90.19;101601.50;4969186;28;20023;-68
2021/12/08 04:15:38;;;;;;;26.65;15.07;;;;;;;7.90;90.27;101595.31;4974277;28;20085;-68
2021/12/08 04:18:04;;;;;;;;;;;;;;;7.88;90.16;101603.19;4987279;28;20052;-67
2021/12/08 04:20:39;;;;;;;26.05;13.38;;;;;;;7.85;90.12;101608.41;4987316;28;19975;-68
2021/12/08 04:23:08;;;;;;;24.40;13.43;;;;;;;7.79;89.85;101611.84;4976123;28;20083;-68
2021/12/08 04:25:37;;;;;;;25.75;13.23;;;;;;;7.77;90.06;101612.69;4976081;28;20031;-68
2021/12/08 04:28:18;;;;;;;23.35;13.70;;;;;;;7.73;90.17;101613.53;4973476;28;20066;-68
2021/12/08 04:30:53;;;;;;;28.95;14.10;;;;;;;7.72;90.20;101615.28;4970721;28;20982;-68
2021/12/08 04:33:20;;;;;;;30.73;15.45;;;;;;;7.70;90.43;101611.72;4974461;28;21184;-68
2021/12/08 04:35:48;;;;;;;28.35;15.10;;;;;;;7.68;90.58;101616.97;4969314;28;20050;-68
2021/12/08 04:38:23;;;;;;;30.88;15.20;;;;;;;7.65;90.13;101619.59;4990815;28;20121;-68
2021/12/08 04:41:07;;;;;;;32.22;17.10;;;;;;;7.63;90.30;101623.91;4973115;28;20507;-68
2021/12/08 04:52:08;;;;;;;36.10;17.63;;;;;;;7.60;91.17;101628.25;4957096;28;20053;-68
2021/12/08 05:06:36;;;;;;;36.00;16.60;;;;;;;7.48;90.64;101623.69;4965682;28;20042;-68
2021/12/08 05:09:13;;;;;;;37.83;18.08;;;;;;;7.42;90.53;101634.16;4972926;28;20040;-67
2021/12/08 05:11:46;;;;;;;33.03;17.58;;;;;;;7.40;90.78;101639.41;4987532;28;20232;-68
2021/12/08 05:14:30;;;;;;;38.83;17.65;;;;;;;7.38;90.79;101638.47;4977728;28;20027;-68
2021/12/08 05:17:01;;;;;;;37.58;18.08;;;;;;;7.36;91.20;101648.09;4978355;28;20440;-68
2021/12/08 05:19:30;;;;;;;32.47;16.67;;;;;;;7.33;91.18;101655.91;4979545;28;20037;-68
2021/12/08 05:22:03;;;;;;;41.33;19.05;;;;;;;7.34;91.60;101665.56;4977645;28;20031;-68
2021/12/08 05:24:34;;;;;;;41.20;18.90;;;;;;;7.32;91.10;101668.19;4972017;28;20026;-68
2021/12/08 05:27:11;;;;;;;39.92;17.92;;;;;;;7.30;91.04;101669.91;4970795;28;20030;-68
2021/12/08 05:29:40;;;;;;;33.97;17.35;;;;;;;7.27;91.02;101676.88;4981217;28;20475;-68
2021/12/08 05:32:07;;;;;;;38.15;17.75;;;;;;;7.26;91.02;101675.97;4972101;28;20031;-67
2021/12/08 05:34:34;;;;;;;38.67;17.95;;;;;;;7.25;91.07;101658.41;4973624;28;20082;-68
2021/12/08 05:37:02;;;;;;;40.08;19.15;;;;;;;7.24;91.42;101653.16;4973257;28;20408;-68
2021/12/08 05:39:30;;;;;;;47.78;19.42;;;;;;;7.23;91.50;101647.03;4987228;28;20024;-67
2021/12/08 05:42:02;;;;;;;43.60;19.42;;;;;;;7.21;91.39;101643.47;4984500;28;20034;-67
2021/12/08 05:44:29;;;;;;;49.53;21.17;;;;;;;7.21;91.39;101645.22;4975602;28;20027;-67
2021/12/08 05:46:59;;;;;;;50.33;20.10;;;;;;;7.19;91.54;101645.22;4975264;28;20035;-67
2021/12/08 05:49:26;;;;;;;50.05;20.63;;;;;;;7.21;91.71;101648.72;4975462;28;20034;-67
2021/12/08 05:51:55;;;;;;;45.20;20.10;;;;;;;7.20;91.41;101644.31;4973881;28;20039;-67
2021/12/08 05:54:26;;;;;;;48.25;19.85;;;;;;;7.20;91.77;101638.19;4974493;28;20058;-67
2021/12/08 05:56:56;;;;;;;50.58;19.98;;;;;;;7.17;91.92;101636.41;4973381;28;20027;-67
2021/12/08 05:59:24;;;;;;;44.85;20.58;;;;;;;7.18;92.10;101630.28;4973747;28;20038;-67
2021/12/08 06:02:08;;;;;;;51.38;21.23;;;;;;;7.17;92.01;101636.41;4973504;28;20034;-67
2021/12/08 06:04:34;;;;;;;48.10;21.23;;;;;;;7.19;92.38;101634.69;4954520;28;20039;-68
2021/12/08 06:07:06;;;;;;;54.33;22.35;;;;;;;7.20;91.84;101635.56;4970575;28;20098;-67
2021/12/08 06:09:34;;;;;;;56.60;22.45;;;;;;;7.19;92.44;101642.59;4976165;28;20039;-67
2021/12/08 06:12:01;;;;;;;57.65;23.63;;;;;;;7.20;92.07;101649.56;4973810;28;20050;-67
2021/12/08 06:14:32;;;;;;;57.58;23.38;;;;;;;7.20;92.62;101656.59;4971241;28;20033;-67
2021/12/08 06:17:07;;;;;;;56.65;22.23;;;;;;;7.17;92.73;101658.31;4968875;28;20038;-67
2021/12/08 06:19:36;;;;;;;49.42;22.33;;;;;;;7.17;92.18;101671.47;4975568;28;20031;-68
2021/12/08 06:22:11;;;;;;;58.65;24.00;;;;;;;7.16;92.57;101684.56;4975531;28;20093;-67
2021/12/08 06:24:38;;;;;;;57.30;23.20;;;;;;;7.14;92.62;101688.91;4979079;28;20109;-67
2021/12/08 06:27:06;;;;;;;52.22;22.27;;;;;;;7.14;92.23;101674.03;4993810;28;20364;-67
2021/12/08 06:29:35;;;;;;;57.35;22.90;;;;;;;7.12;92.38;101669.59;4961330;28;20469;-68
2021/12/08 06:32:06;;;;;;;57.17;24.10;;;;;;;7.11;92.52;101671.34;4961878;28;20097;-67
2021/12/08 06:34:36;;;;;;;65.40;24.85;;;;;;;7.16;92.23;101666.16;4976976;28;20023;-67
2021/12/08 06:37:09;;;;;;;67.53;26.45;;;;;;;7.17;92.89;101663.59;4994956;28;20023;-67
2021/12/08 06:39:55;;;;;;;76.57;28.35;;;;;;;7.20;92.77;101680.25;4980856;28;20026;-67
2021/12/08 06:42:29;;;;;;;78.15;29.77;;;;;;;7.20;93.06;101681.13;4973472;28;20101;-72
2021/12/08 06:44:56;;;;;;;74.05;28.00;;;;;;;7.21;93.07;101674.13;4972773;28;20034;-72
2021/12/08 06:47:27;;;;;;;73.65;28.05;;;;;;;7.22;92.76;101683.78;4974089;28;20037;-72
2021/12/08 06:49:59;;;;;;;72.13;27.67;;;;;;;7.22;92.81;101684.66;4976599;28;20026;-72
2021/12/08 06:52:37;;;;;;;73.57;26.58;;;;;;;7.20;92.80;101675.84;4978608;28;20023;-71
2021/12/08 06:55:25;;;;;;;69.53;27.17;;;;;;;7.21;93.12;101669.75;4973799;28;20363;-73
2021/12/08 06:57:58;;;;;;;71.28;26.25;;;;;;;7.20;92.71;101670.59;4978250;28;20035;-72
2021/12/08 07:00:54;;;;;;;80.00;28.35;;;;;;;7.22;93.19;101675.91;4975977;28;20468;-72
2021/12/08 07:03:34;;;;;;;76.57;28.50;;;;;;;7.24;93.34;101667.19;4975012;28;20062;-72
2021/12/08 07:08:43;;;;;;;74.68;27.85;;;;;;;7.19;93.28;101660.97;4972855;28;20093;-72
2021/12/08 07:11:12;;;;;;;80.47;27.92;;;;;;;7.18;92.75;101651.31;4988169;28;20141;-68
2021/12/08 07:13:39;;;;;;;79.60;28.70;;;;;;;7.17;92.93;101647.81;4976649;28;20027;-67
2021/12/08 07:16:14;;;;;;;86.05;27.98;;;;;;;7.14;92.68;101647.75;4977933;28;20047;-67
2021/12/08 07:19:01;;;;;;;67.85;25.20;;;;;;;7.11;92.62;101646.81;4976789;28;20062;-68
2021/12/08 07:21:37;;;;;;;75.55;25.95;;;;;;;7.08;92.52;101641.50;4972307;28;20042;-67
2021/12/08 07:24:22;;;;;;;59.53;24.50;;;;;;;7.03;92.56;101637.94;4982591;28;20062;-65
2021/12/08 07:26:53;;;;;;;69.75;24.33;;;;;;;6.97;92.05;101634.34;4987804;28;20069;-65
2021/12/08 07:29:30;;;;;;;77.95;26.92;;;;;;;6.95;92.17;101624.66;4982884;28;20381;-69
2021/12/08 07:32:01;;;;;;;70.10;25.65;;;;;;;6.93;92.15;101631.66;4979325;28;20035;-69
2021/12/08 07:34:28;;;;;;;71.72;25.35;;;;;;;6.91;92.47;101628.09;4976067;28;20077;-68
2021/12/08 07:37:09;;;;;;;68.45;26.27;;;;;;;6.91;92.47;101633.34;4974052;28;20038;-68
2021/12/08 07:39:44;;;;;;;71.13;25.92;;;;;;;6.87;92.80;101635.06;4992316;28;20034;-68
2021/12/08 07:42:21;;;;;;;75.00;27.20;;;;;;;6.82;92.72;101650.72;4995767;28;20069;-69
2021/12/08 07:44:54;;;;;;;74.80;27.50;;;;;;;6.84;92.71;101658.63;4997428;28;20340;-69
2021/12/08 07:47:26;;;;;;;76.00;29.58;;;;;;;6.82;92.70;101657.75;4980781;28;20100;-70
2021/12/08 07:49:58;;;;;;;71.68;26.77;;;;;;;6.77;92.88;101664.66;4996152;28;20029;-70
2021/12/08 07:52:33;;;;;;;66.15;26.20;;;;;;;6.74;92.55;101669.81;4973840;28;20029;-69
2021/12/08 07:55:02;;;;;;;65.25;25.15;;;;;;;6.72;92.47;101664.56;4992444;28;20018;-69
2021/12/08 07:57:34;;;;;;;68.10;25.42;;;;;;;6.68;92.57;101658.38;4967177;28;20027;-70
2021/12/08 08:00:08;;;;;;;66.93;24.70;;;;;;;6.66;92.52;101648.72;5003677;28;20471;-70
2021/12/08 08:02:35;;;;;;;65.15;24.38;;;;;;;6.65;92.36;101654.81;4975250;28;20042;-69
2021/12/08 08:05:05;;;;;;;65.72;24.00;;;;;;;6.62;92.50;101653.00;4985328;28;20026;-69
2021/12/08 08:07:33;;;;;;;60.40;23.85;;;;;;;6.61;92.26;101659.09;4962848;28;20093;-69
2021/12/08 08:10:01;;;;;;;60.88;23.38;;;;;;;6.57;92.62;101656.41;4978218;28;20117;-69
2021/12/08 08:12:31;;;;;;;73.22;24.27;;;;;;;6.55;92.21;101658.13;4995448;28;20463;-68
2021/12/08 08:15:02;;;;;;;78.28;29.10;;;;;;;6.53;92.36;101658.09;4992708;28;20057;-68
2021/12/08 08:17:36;;;;;;;73.35;26.73;;;;;;;6.53;92.35;101671.22;4993649;28;20066;-68
2021/12/08 08:20:12;;;;;;;70.13;25.92;;;;;;;6.51;92.58;101665.94;4989535;28;20023;-68
2021/12/08 08:22:39;;;;;;;61.17;24.45;;;;;;;6.51;92.66;101678.16;4983625;28;20038;-68
2021/12/08 08:25:06;;;;;;;;;;;;;;;6.55;92.83;101682.66;4993495;28;20030;-68
2021/12/08 08:27:33;;;;;;;62.08;23.52;;;;;;;6.55;93.04;101682.66;4991035;28;19917;-68
2021/12/08 08:30:00;;;;;;;55.97;22.58;;;;;;;6.52;93.26;101679.94;4990619;28;20453;-67
2021/12/08 08:32:34;;;;;;;67.35;23.88;;;;;;;6.51;93.29;101679.06;4984531;28;20038;-67
2021/12/08 08:35:10;;;;;;;53.38;22.20;;;;;;;6.51;93.36;101686.03;4986145;28;20027;-67
2021/12/08 08:37:36;;;;;;;65.57;24.90;;;;;;;6.59;93.29;101688.81;4983181;28;20479;-67
2021/12/08 08:40:10;;;;;;;72.25;25.33;;;;;;;6.72;93.36;101682.06;4984472;28;20042;-67
2021/12/08 08:42:40;;;;;;;71.57;26.45;;;;;;;6.81;93.70;101676.97;4974964;28;20074;-67
2021/12/08 08:45:14;;;;;;;70.13;27.80;;;;;;;6.91;93.65;101673.66;4978116;28;20037;-68
2021/12/08 08:47:45;;;;;;;73.40;28.55;;;;;;;7.02;93.79;101686.97;4976769;28;20035;-67
2021/12/08 08:50:16;;;;;;;76.72;29.90;;;;;;;7.11;93.85;101681.88;4993770;28;20104;-68
2021/12/08 08:52:48;;;;;;;72.22;28.65;;;;;;;7.20;93.67;101683.75;4993112;28;20369;-67
2021/12/08 08:55:27;;;;;;;83.75;30.58;;;;;;;7.34;93.97;101690.09;4978334;28;20026;-68
2021/12/08 08:57:55;;;;;;;77.00;30.52;;;;;;;7.43;94.00;101685.88;4986995;28;20455;-67
2021/12/08 09:00:30;;;;;;;76.13;31.33;;;;;;;7.53;94.29;101684.25;4991512;28;20022;-68
2021/12/08 09:03:04;;;;;;;79.03;30.60;;;;;;;7.58;94.13;101686.09;4992387;28;20045;-68
2021/12/08 09:05:41;;;;;;;73.32;29.23;;;;;;;7.67;94.12;101669.56;4978495;28;20026;-68
2021/12/08 09:08:09;;;;;;;73.38;29.58;;;;;;;7.73;94.26;101666.13;4980081;28;20046;-68
2021/12/08 09:11:15;;;;;;;72.68;27.58;;;;;;;7.80;94.41;101675.88;4975519;28;20034;-67
2021/12/08 09:14:00;;;;;;;63.28;26.50;;;;;;;7.90;94.28;101687.41;4977310;28;20046;-69
2021/12/08 09:16:49;;;;;;;64.80;26.10;;;;;;;7.98;94.42;101699.81;5007431;28;20139;-69
2021/12/08 09:19:23;;;;;;;66.63;26.10;;;;;;;8.11;94.35;101706.09;4995494;28;20117;-69
2021/12/08 09:21:59;;;;;;;60.28;26.02;;;;;;;8.23;94.98;101708.00;4986323;28;20037;-69
2021/12/08 09:24:44;;;;;;;62.33;25.48;;;;;;;8.28;94.42;101706.31;4992949;28;20046;-69
2021/12/08 09:27:15;;;;;;;62.47;23.65;;;;;;;8.36;94.87;101706.41;4970021;28;20038;-69
2021/12/08 09:29:46;;;;;;;49.00;20.98;;;;;;;8.47;94.71;101709.19;4982088;28;20039;-69
2021/12/08 09:32:41;;;;;;;42.40;18.23;;;;;;;8.54;94.61;101703.16;4975445;28;20049;-70
2021/12/08 09:35:17;;;;;;;29.17;11.07;;;;;;;8.75;94.59;101717.41;4956257;28;20110;-69
2021/12/08 09:37:49;;;;;;;23.38;9.63;;;;;;;8.76;94.34;101712.13;4995985;28;20106;-69
2021/12/08 09:40:34;;;;;;;24.73;10.13;;;;;;;8.79;95.05;101706.00;4973570;28;20050;-69
2021/12/08 09:43:11;;;;;;;25.65;9.77;;;;;;;8.81;94.76;101699.91;4985651;28;20117;-70
2021/12/08 09:45:39;;;;;;;;;;;;;;;8.87;94.66;101700.81;4994827;28;20019;-69
2021/12/08 09:48:08;;;;;;;16.08;6.53;;;;;;;8.96;95.15;101691.25;4992579;28;19917;-70
2021/12/08 09:50:36;;;;;;;14.43;5.47;;;;;;;8.99;95.16;101685.13;4992180;28;20658;-70
2021/12/08 09:53:03;;;;;;;14.48;5.60;;;;;;;9.01;94.82;101696.56;4991057;28;20487;-69
2021/12/08 09:55:29;;;;;;;11.00;5.13;;;;;;;9.05;94.85;101705.41;4984343;28;20034;-70
2021/12/08 09:57:55;;;;;;;13.13;5.15;;;;;;;9.18;95.15;101709.91;4976096;28;20033;-69
2021/12/08 10:00:30;;;;;;;10.07;5.10;;;;;;;9.21;95.25;101707.28;4986365;28;20031;-70
2021/12/08 10:03:00;;;;;;;12.18;5.13;;;;;;;9.28;94.67;101722.25;4963479;28;20032;-70
2021/12/08 10:05:32;;;;;;;13.07;4.72;;;;;;;9.29;95.09;101718.78;4988155;28;20448;-70
2021/12/08 10:07:58;;;;;;;13.35;5.07;;;;;;;9.32;95.03;101699.44;4993593;28;20062;-70
2021/12/08 10:10:26;;;;;;;9.60;3.75;;;;;;;9.32;95.25;101700.34;4993782;28;20030;-70
2021/12/08 10:12:52;;;;;;;9.38;3.80;;;;;;;9.34;95.08;101700.34;4984491;28;20089;-67
2021/12/08 10:15:20;;;;;;;9.73;3.80;;;;;;;9.31;95.00;101703.84;4985185;28;20121;-68
2021/12/08 10:17:48;;;;;;;7.47;3.33;;;;;;;9.33;95.21;101711.78;4991186;28;20034;-67
2021/12/08 10:20:42;;;;;;;12.55;3.92;;;;;;;9.33;94.70;101694.19;4992990;28;20050;-68
2021/12/08 10:23:23;;;;;;;8.70;4.05;;;;;;;9.39;95.46;101692.47;4974726;28;20042;-68
2021/12/08 10:25:54;;;;;;;12.18;4.07;;;;;;;9.37;94.78;101691.59;4982476;28;20389;-69
2021/12/08 10:28:27;;;;;;;10.20;3.95;;;;;;;9.37;94.73;101697.72;4987207;28;20365;-69
2021/12/08 10:30:55;;;;;;;9.27;4.10;;;;;;;9.38;95.14;101693.34;4977412;28;20030;-68
2021/12/08 10:34:05;;;;;;;9.45;4.40;;;;;;;9.35;94.72;101703.00;4996680;28;20037;-68
2021/12/08 10:36:46;;;;;;;11.27;4.90;;;;;;;9.35;94.63;101700.38;4981588;28;20039;-67
2021/12/08 10:39:31;;;;;;;13.43;5.28;;;;;;;9.37;94.74;101707.41;4981789;28;20026;-68
2021/12/08 10:42:02;;;;;;;10.57;5.18;;;;;;;9.32;94.68;101700.34;4998363;28;20034;-68
2021/12/08 10:44:48;;;;;;;10.02;4.13;;;;;;;9.35;94.65;101694.22;4993595;28;20038;-68
2021/12/08 10:47:25;;;;;;;9.57;4.32;;;;;;;9.40;94.46;101689.84;4989325;28;20034;-68
2021/12/08 10:55:20;;;;;;;10.07;4.45;;;;;;;9.34;94.20;101685.41;4982901;28;20048;-68
2021/12/08 10:57:50;;;;;;;11.82;4.47;;;;;;;9.34;94.40;101682.78;4976713;28;20034;-68
2021/12/08 11:00:28;;;;;;;14.30;5.53;;;;;;;9.37;94.26;101681.03;4993937;28;20460;-68
2021/12/08 11:03:00;;;;;;;10.65;5.53;;;;;;;9.42;94.00;101688.09;4980095;28;20364;-68
2021/12/08 11:05:28;;;;;;;12.77;6.55;;;;;;;9.50;94.05;101682.88;4992357;28;20512;-68
2021/12/08 11:08:11;;;;;;;15.88;8.32;;;;;;;9.50;93.89;101683.75;4978644;28;20030;-68
2021/12/08 11:10:45;;;;;;;16.50;7.32;;;;;;;9.47;93.49;101693.41;4981674;28;20136;-68
2021/12/08 11:13:13;;;;;;;16.17;7.72;;;;;;;9.38;93.64;101702.16;4980181;28;20069;-68
2021/12/08 11:15:41;;;;;;;18.73;8.60;;;;;;;9.38;93.67;101706.50;4977941;28;20019;-68
2021/12/08 11:18:20;;;;;;;17.27;8.43;;;;;;;9.33;93.72;101703.88;4976913;28;20097;-68
2021/12/08 11:20:50;;;;;;;16.83;7.60;;;;;;;9.23;92.71;101702.91;4985580;28;20046;-68
2021/12/08 11:23:38;;;;;;;23.17;9.13;;;;;;;9.20;93.35;101696.72;4984226;28;20025;-68
2021/12/08 11:26:14;;;;;;;24.00;9.25;;;;;;;9.13;93.07;101690.53;4979841;28;20376;-68
2021/12/08 11:28:40;;;;;;;22.40;9.68;;;;;;;9.08;92.87;101689.59;4984398;28;20475;-68
2021/12/08 11:31:11;;;;;;;;;;;;;;;9.02;92.71;101698.34;4992661;28;20109;-68
2021/12/08 11:33:47;;;;;;;44.13;16.85;;;;;;;8.99;93.21;101698.28;4979353;28;19969;-68
2021/12/08 11:36:18;;;;;;;52.85;19.25;;;;;;;8.94;92.71;101700.00;4990416;28;20033;-68
2021/12/08 11:38:46;;;;;;;51.25;18.98;;;;;;;8.87;92.81;101693.78;4978596;28;20054;-68
2021/12/08 11:41:41;;;;;;;53.13;20.80;;;;;;;8.83;92.69;101685.00;4982210;28;20101;-68
2021/12/08 11:44:10;;;;;;;51.42;20.05;;;;;;;8.80;92.71;101687.59;4991852;28;20049;-68
2021/12/08 11:46:46;;;;;;;43.92;18.27;;;;;;;8.69;92.56;101683.97;4988002;28;20108;-68
2021/12/08 11:49:13;;;;;;;44.65;17.67;;;;;;;8.65;91.76;101672.53;4990784;28;20030;-68
2021/12/08 11:51:45;;;;;;;51.20;19.75;;;;;;;8.60;92.19;101681.25;4986147;28;20028;-68
2021/12/08 11:54:39;;;;;;;53.55;21.45;;;;;;;8.60;92.26;101691.78;4981076;28;20035;-68
2021/12/08 11:57:10;;;;;;;63.05;23.30;;;;;;;8.57;93.08;101692.63;4991649;28;20037;-68
2021/12/08 11:59:46;;;;;;;66.70;23.52;;;;;;;8.51;92.43;101680.28;4982432;28;20035;-68
2021/12/08 12:02:18;;;;;;;61.05;23.02;;;;;;;8.49;92.48;101678.50;4984486;28;20462;-68
2021/12/08 12:04:45;;;;;;;57.65;22.67;;;;;;;8.47;92.40;101670.56;4983032;28;20062;-68
2021/12/08 12:07:13;;;;;;;60.38;22.92;;;;;;;8.38;93.04;101653.75;4984657;28;20449;-67
2021/12/08 12:09:41;;;;;;;59.00;21.67;;;;;;;8.31;92.44;101642.28;4988626;28;20113;-67
2021/12/08 12:12:08;;;;;;;66.38;22.48;;;;;;;8.28;92.43;101637.88;4976936;28;20031;-68
2021/12/08 12:14:35;;;;;;;75.07;24.48;;;;;;;8.22;92.54;101650.06;4987167;28;20160;-67
2021/12/08 12:17:02;;;;;;;65.28;21.55;;;;;;;8.18;92.29;101660.59;4976473;28;20026;-68
2021/12/08 12:19:33;;;;;;;59.08;21.02;;;;;;;8.17;92.14;101650.91;4983346;28;20518;-68
2021/12/08 12:22:17;;;;;;;60.85;18.98;;;;;;;8.09;92.33;101656.94;4987231;28;20023;-69
2021/12/08 12:25:14;;;;;;;55.90;18.02;;;;;;;7.98;92.10;101657.72;4979366;28;20118;-69